sensor_id;sensor_type;location;lat;lon;timestamp;P1;durP1;ratioP1;P2;durP2;ratioP2
18194;SDS011;9223;50.988;3.162;2022-07-04T00:03:26;4.13;;;1.45;;
18194;SDS011;9223;50.988;3.162;2022-07-04T00:09:31;2.40;;;1.67;;
18194;SDS011;9223;50.988;3.162;2022-07-04T00:15:34;2.75;;;1.70;;
18194;SDS011;9223;50.988;3.162;2022-07-04T00:21:38;4.35;;;1.85;;
18194;SDS011;9223;50.988;3.162;2022-07-04T00:27:42;4.55;;;2.03;;
18194;SDS011;9223;50.988;3.162;2022-07-04T00:33:46;4.57;;;1.90;;
18194;SDS011;9223;50.988;3.162;2022-07-04T00:39:49;5.50;;;2.58;;
18194;SDS011;9223;50.988;3.162;2022-07-04T00:45:54;3.53;;;2.22;;
18194;SDS011;9223;50.988;3.162;2022-07-04T00:51:58;5.13;;;1.95;;
18194;SDS011;9223;50.988;3.162;2022-07-04T00:58:01;3.08;;;1.98;;
18194;SDS011;9223;50.988;3.162;2022-07-04T01:04:06;3.92;;;2.05;;
18194;SDS011;9223;50.988;3.162;2022-07-04T01:10:10;5.97;;;2.33;;
18194;SDS011;9223;50.988;3.162;2022-07-04T01:16:13;3.03;;;2.20;;
18194;SDS011;9223;50.988;3.162;2022-07-04T01:22:18;2.75;;;2.20;;
18194;SDS011;9223;50.988;3.162;2022-07-04T01:28:22;4.28;;;2.30;;
18194;SDS011;9223;50.988;3.162;2022-07-04T01:34:26;2.90;;;1.98;;
18194;SDS011;9223;50.988;3.162;2022-07-04T01:40:31;4.13;;;2.17;;
18194;SDS011;9223;50.988;3.162;2022-07-04T01:46:35;3.60;;;1.90;;
18194;SDS011;9223;50.988;3.162;2022-07-04T01:52:38;3.95;;;1.85;;
18194;SDS011;9223;50.988;3.162;2022-07-04T01:58:43;4.47;;;2.35;;
18194;SDS011;9223;50.988;3.162;2022-07-04T02:04:47;7.10;;;2.50;;
18194;SDS011;9223;50.988;3.162;2022-07-04T02:10:51;3.80;;;2.15;;
18194;SDS011;9223;50.988;3.162;2022-07-04T02:16:56;2.30;;;2.10;;
18194;SDS011;9223;50.988;3.162;2022-07-04T02:22:59;4.13;;;2.53;;
18194;SDS011;9223;50.988;3.162;2022-07-04T02:29:03;4.47;;;2.65;;
18194;SDS011;9223;50.988;3.162;2022-07-04T02:35:08;3.53;;;2.25;;
18194;SDS011;9223;50.988;3.162;2022-07-04T02:41:12;3.28;;;2.45;;
18194;SDS011;9223;50.988;3.162;2022-07-04T02:47:15;6.15;;;2.67;;
18194;SDS011;9223;50.988;3.162;2022-07-04T02:53:20;3.67;;;2.42;;
18194;SDS011;9223;50.988;3.162;2022-07-04T02:59:23;5.65;;;3.15;;
18194;SDS011;9223;50.988;3.162;2022-07-04T03:05:27;5.28;;;3.15;;
18194;SDS011;9223;50.988;3.162;2022-07-04T03:11:35;9.20;;;3.30;;
18194;SDS011;9223;50.988;3.162;2022-07-04T03:17:38;5.85;;;2.90;;
18194;SDS011;9223;50.988;3.162;2022-07-04T03:23:41;5.78;;;3.30;;
18194;SDS011;9223;50.988;3.162;2022-07-04T03:30:00;6.57;;;3.75;;
18194;SDS011;9223;50.988;3.162;2022-07-04T03:36:03;6.25;;;3.75;;
18194;SDS011;9223;50.988;3.162;2022-07-04T03:42:07;6.60;;;4.25;;
18194;SDS011;9223;50.988;3.162;2022-07-04T03:48:12;6.00;;;3.63;;
18194;SDS011;9223;50.988;3.162;2022-07-04T03:54:15;6.45;;;4.00;;
18194;SDS011;9223;50.988;3.162;2022-07-04T04:00:19;7.88;;;4.05;;
18194;SDS011;9223;50.988;3.162;2022-07-04T04:06:23;6.65;;;4.00;;
18194;SDS011;9223;50.988;3.162;2022-07-04T04:12:27;9.45;;;4.20;;
18194;SDS011;9223;50.988;3.162;2022-07-04T04:18:31;7.95;;;4.20;;
18194;SDS011;9223;50.988;3.162;2022-07-04T04:24:35;7.10;;;4.18;;
18194;SDS011;9223;50.988;3.162;2022-07-04T04:30:39;8.98;;;4.22;;
18194;SDS011;9223;50.988;3.162;2022-07-04T04:36:42;8.07;;;4.53;;
18194;SDS011;9223;50.988;3.162;2022-07-04T04:42:47;6.75;;;4.70;;
18194;SDS011;9223;50.988;3.162;2022-07-04T04:48:50;7.28;;;4.75;;
18194;SDS011;9223;50.988;3.162;2022-07-04T04:54:54;12.40;;;5.30;;
18194;SDS011;9223;50.988;3.162;2022-07-04T05:00:59;10.18;;;5.80;;
18194;SDS011;9223;50.988;3.162;2022-07-04T05:07:23;10.93;;;5.95;;
18194;SDS011;9223;50.988;3.162;2022-07-04T05:13:27;10.77;;;5.97;;
18194;SDS011;9223;50.988;3.162;2022-07-04T05:19:31;12.98;;;6.72;;
18194;SDS011;9223;50.988;3.162;2022-07-04T05:25:35;12.32;;;6.28;;
18194;SDS011;9223;50.988;3.162;2022-07-04T05:31:38;13.73;;;6.82;;
18194;SDS011;9223;50.988;3.162;2022-07-04T05:37:43;10.95;;;6.32;;
18194;SDS011;9223;50.988;3.162;2022-07-04T05:43:47;13.02;;;6.30;;
18194;SDS011;9223;50.988;3.162;2022-07-04T05:49:57;11.27;;;7.07;;
18194;SDS011;9223;50.988;3.162;2022-07-04T05:56:02;11.23;;;7.70;;
18194;SDS011;9223;50.988;3.162;2022-07-04T06:02:06;11.43;;;7.22;;
18194;SDS011;9223;50.988;3.162;2022-07-04T06:08:10;14.32;;;7.75;;
18194;SDS011;9223;50.988;3.162;2022-07-04T06:14:15;11.82;;;7.20;;
18194;SDS011;9223;50.988;3.162;2022-07-04T06:20:18;8.40;;;4.85;;
18194;SDS011;9223;50.988;3.162;2022-07-04T06:26:22;11.15;;;6.18;;
18194;SDS011;9223;50.988;3.162;2022-07-04T06:32:26;7.10;;;3.42;;
18194;SDS011;9223;50.988;3.162;2022-07-04T06:38:30;5.03;;;2.95;;
18194;SDS011;9223;50.988;3.162;2022-07-04T06:44:33;12.52;;;6.03;;
18194;SDS011;9223;50.988;3.162;2022-07-04T06:50:38;11.25;;;6.43;;
18194;SDS011;9223;50.988;3.162;2022-07-04T06:56:42;11.38;;;7.97;;
18194;SDS011;9223;50.988;3.162;2022-07-04T07:02:45;14.23;;;6.65;;
18194;SDS011;9223;50.988;3.162;2022-07-04T07:08:50;13.60;;;7.03;;
18194;SDS011;9223;50.988;3.162;2022-07-04T07:14:53;11.23;;;6.70;;
18194;SDS011;9223;50.988;3.162;2022-07-04T07:20:57;11.38;;;6.78;;
18194;SDS011;9223;50.988;3.162;2022-07-04T07:27:02;9.45;;;6.10;;
18194;SDS011;9223;50.988;3.162;2022-07-04T07:33:05;10.30;;;5.88;;
18194;SDS011;9223;50.988;3.162;2022-07-04T07:39:09;9.48;;;6.30;;
18194;SDS011;9223;50.988;3.162;2022-07-04T07:45:14;8.82;;;4.85;;
18194;SDS011;9223;50.988;3.162;2022-07-04T07:51:17;8.48;;;6.03;;
18194;SDS011;9223;50.988;3.162;2022-07-04T07:57:21;8.85;;;4.97;;
18194;SDS011;9223;50.988;3.162;2022-07-04T08:03:25;5.75;;;3.85;;
18194;SDS011;9223;50.988;3.162;2022-07-04T08:09:47;4.90;;;3.30;;
18194;SDS011;9223;50.988;3.162;2022-07-04T08:15:50;6.57;;;4.28;;
18194;SDS011;9223;50.988;3.162;2022-07-04T08:21:55;6.20;;;2.97;;
18194;SDS011;9223;50.988;3.162;2022-07-04T08:28:15;6.28;;;4.82;;
18194;SDS011;9223;50.988;3.162;2022-07-04T08:34:18;7.05;;;5.00;;
18194;SDS011;9223;50.988;3.162;2022-07-04T08:40:23;6.10;;;3.53;;
18194;SDS011;9223;50.988;3.162;2022-07-04T08:46:27;2.50;;;2.15;;
18194;SDS011;9223;50.988;3.162;2022-07-04T08:52:34;4.00;;;2.17;;
18194;SDS011;9223;50.988;3.162;2022-07-04T08:58:40;5.10;;;3.00;;
18194;SDS011;9223;50.988;3.162;2022-07-04T09:04:45;2.85;;;2.60;;
18194;SDS011;9223;50.988;3.162;2022-07-04T09:10:49;3.13;;;1.85;;
18194;SDS011;9223;50.988;3.162;2022-07-04T09:16:54;2.80;;;2.20;;
18194;SDS011;9223;50.988;3.162;2022-07-04T09:22:58;2.97;;;2.13;;
18194;SDS011;9223;50.988;3.162;2022-07-04T09:29:02;4.55;;;3.65;;
18194;SDS011;9223;50.988;3.162;2022-07-04T09:35:08;4.22;;;2.42;;
18194;SDS011;9223;50.988;3.162;2022-07-04T09:41:12;3.33;;;1.80;;
18194;SDS011;9223;50.988;3.162;2022-07-04T09:47:30;3.10;;;2.25;;
18194;SDS011;9223;50.988;3.162;2022-07-04T09:53:35;2.60;;;1.70;;
18194;SDS011;9223;50.988;3.162;2022-07-04T09:59:39;4.55;;;2.25;;
18194;SDS011;9223;50.988;3.162;2022-07-04T10:05:42;3.58;;;2.72;;
18194;SDS011;9223;50.988;3.162;2022-07-04T10:11:47;3.13;;;2.10;;
18194;SDS011;9223;50.988;3.162;2022-07-04T10:17:51;3.15;;;2.65;;
18194;SDS011;9223;50.988;3.162;2022-07-04T10:23:54;3.50;;;2.13;;
18194;SDS011;9223;50.988;3.162;2022-07-04T10:29:59;3.90;;;2.80;;
18194;SDS011;9223;50.988;3.162;2022-07-04T10:36:03;4.20;;;2.92;;
18194;SDS011;9223;50.988;3.162;2022-07-04T10:42:07;2.78;;;2.22;;
18194;SDS011;9223;50.988;3.162;2022-07-04T10:48:20;4.15;;;2.42;;
18194;SDS011;9223;50.988;3.162;2022-07-04T10:54:30;1.73;;;1.50;;
18194;SDS011;9223;50.988;3.162;2022-07-04T11:00:36;1.90;;;1.60;;
18194;SDS011;9223;50.988;3.162;2022-07-04T11:06:52;2.05;;;1.80;;
18194;SDS011;9223;50.988;3.162;2022-07-04T11:13:15;3.80;;;2.30;;
18194;SDS011;9223;50.988;3.162;2022-07-04T11:19:19;3.70;;;2.00;;
18194;SDS011;9223;50.988;3.162;2022-07-04T11:25:24;1.73;;;1.40;;
18194;SDS011;9223;50.988;3.162;2022-07-04T11:31:37;2.22;;;1.88;;
18194;SDS011;9223;50.988;3.162;2022-07-04T11:37:42;1.80;;;1.50;;
18194;SDS011;9223;50.988;3.162;2022-07-04T11:43:49;3.40;;;1.30;;
18194;SDS011;9223;50.988;3.162;2022-07-04T11:50:10;2.05;;;1.85;;
18194;SDS011;9223;50.988;3.162;2022-07-04T11:56:15;1.50;;;1.13;;
18194;SDS011;9223;50.988;3.162;2022-07-04T12:02:19;2.58;;;1.67;;
18194;SDS011;9223;50.988;3.162;2022-07-04T12:08:23;3.03;;;1.60;;
18194;SDS011;9223;50.988;3.162;2022-07-04T12:14:27;1.45;;;1.30;;
18194;SDS011;9223;50.988;3.162;2022-07-04T12:20:32;3.35;;;1.30;;
18194;SDS011;9223;50.988;3.162;2022-07-04T12:26:44;1.88;;;1.58;;
18194;SDS011;9223;50.988;3.162;2022-07-04T12:32:51;2.53;;;1.42;;
18194;SDS011;9223;50.988;3.162;2022-07-04T12:38:56;1.85;;;1.33;;
18194;SDS011;9223;50.988;3.162;2022-07-04T12:45:04;2.35;;;1.48;;
18194;SDS011;9223;50.988;3.162;2022-07-04T12:51:09;2.13;;;1.40;;
18194;SDS011;9223;50.988;3.162;2022-07-04T12:57:15;1.50;;;1.40;;
18194;SDS011;9223;50.988;3.162;2022-07-04T13:03:19;2.95;;;1.85;;
18194;SDS011;9223;50.988;3.162;2022-07-04T13:09:23;1.77;;;1.60;;
18194;SDS011;9223;50.988;3.162;2022-07-04T13:15:28;2.83;;;1.52;;
18194;SDS011;9223;50.988;3.162;2022-07-04T13:21:32;2.17;;;1.98;;
18194;SDS011;9223;50.988;3.162;2022-07-04T13:27:36;5.05;;;2.97;;
18194;SDS011;9223;50.988;3.162;2022-07-04T13:33:41;3.15;;;2.28;;
18194;SDS011;9223;50.988;3.162;2022-07-04T13:39:44;3.20;;;2.90;;
18194;SDS011;9223;50.988;3.162;2022-07-04T13:45:51;6.30;;;4.30;;
18194;SDS011;9223;50.988;3.162;2022-07-04T13:51:56;2.22;;;1.85;;
18194;SDS011;9223;50.988;3.162;2022-07-04T13:58:01;4.28;;;3.47;;
18194;SDS011;9223;50.988;3.162;2022-07-04T14:04:04;2.33;;;1.80;;
18194;SDS011;9223;50.988;3.162;2022-07-04T14:10:09;4.38;;;3.60;;
18194;SDS011;9223;50.988;3.162;2022-07-04T14:16:14;3.63;;;2.72;;
18194;SDS011;9223;50.988;3.162;2022-07-04T14:22:17;2.78;;;2.53;;
18194;SDS011;9223;50.988;3.162;2022-07-04T14:28:22;3.85;;;3.22;;
18194;SDS011;9223;50.988;3.162;2022-07-04T14:34:27;4.38;;;3.35;;
18194;SDS011;9223;50.988;3.162;2022-07-04T14:40:30;3.13;;;1.80;;
18194;SDS011;9223;50.988;3.162;2022-07-04T14:46:35;2.85;;;2.50;;
18194;SDS011;9223;50.988;3.162;2022-07-04T14:52:39;2.13;;;1.92;;
18194;SDS011;9223;50.988;3.162;2022-07-04T14:58:42;2.25;;;2.00;;
18194;SDS011;9223;50.988;3.162;2022-07-04T15:04:49;2.58;;;1.90;;
18194;SDS011;9223;50.988;3.162;2022-07-04T15:10:52;2.72;;;2.25;;
18194;SDS011;9223;50.988;3.162;2022-07-04T15:17:01;3.08;;;1.80;;
18194;SDS011;9223;50.988;3.162;2022-07-04T15:23:09;2.35;;;1.50;;
18194;SDS011;9223;50.988;3.162;2022-07-04T15:29:31;2.80;;;1.50;;
18194;SDS011;9223;50.988;3.162;2022-07-04T15:35:34;2.60;;;1.40;;
18194;SDS011;9223;50.988;3.162;2022-07-04T15:41:39;4.15;;;1.92;;
18194;SDS011;9223;50.988;3.162;2022-07-04T15:47:43;2.70;;;1.48;;
18194;SDS011;9223;50.988;3.162;2022-07-04T15:53:46;3.63;;;1.63;;
18194;SDS011;9223;50.988;3.162;2022-07-04T15:59:51;1.40;;;1.30;;
18194;SDS011;9223;50.988;3.162;2022-07-04T16:05:54;2.05;;;1.13;;
18194;SDS011;9223;50.988;3.162;2022-07-04T16:11:58;4.30;;;1.33;;
18194;SDS011;9223;50.988;3.162;2022-07-04T16:18:03;2.33;;;1.20;;
18194;SDS011;9223;50.988;3.162;2022-07-04T16:24:07;1.55;;;1.20;;
18194;SDS011;9223;50.988;3.162;2022-07-04T16:30:11;2.88;;;1.17;;
18194;SDS011;9223;50.988;3.162;2022-07-04T16:36:16;2.42;;;1.30;;
18194;SDS011;9223;50.988;3.162;2022-07-04T16:42:19;1.83;;;1.10;;
18194;SDS011;9223;50.988;3.162;2022-07-04T16:48:23;2.17;;;1.42;;
18194;SDS011;9223;50.988;3.162;2022-07-04T16:54:27;3.30;;;1.00;;
18194;SDS011;9223;50.988;3.162;2022-07-04T17:00:31;1.65;;;1.00;;
18194;SDS011;9223;50.988;3.162;2022-07-04T17:06:34;2.88;;;0.98;;
18194;SDS011;9223;50.988;3.162;2022-07-04T17:12:39;2.85;;;1.20;;
18194;SDS011;9223;50.988;3.162;2022-07-04T17:18:42;1.33;;;1.15;;
18194;SDS011;9223;50.988;3.162;2022-07-04T17:24:46;1.40;;;1.27;;
18194;SDS011;9223;50.988;3.162;2022-07-04T17:30:51;3.15;;;1.23;;
18194;SDS011;9223;50.988;3.162;2022-07-04T17:36:56;2.67;;;0.98;;
18194;SDS011;9223;50.988;3.162;2022-07-04T17:43:00;4.55;;;1.20;;
18194;SDS011;9223;50.988;3.162;2022-07-04T17:49:04;2.28;;;1.17;;
18194;SDS011;9223;50.988;3.162;2022-07-04T17:55:13;1.25;;;1.00;;
18194;SDS011;9223;50.988;3.162;2022-07-04T18:01:16;3.08;;;1.27;;
18194;SDS011;9223;50.988;3.162;2022-07-04T18:07:21;2.30;;;1.30;;
18194;SDS011;9223;50.988;3.162;2022-07-04T18:13:25;4.15;;;1.08;;
18194;SDS011;9223;50.988;3.162;2022-07-04T18:19:28;3.35;;;0.93;;
18194;SDS011;9223;50.988;3.162;2022-07-04T18:25:33;3.40;;;1.00;;
18194;SDS011;9223;50.988;3.162;2022-07-04T18:31:37;1.48;;;1.00;;
18194;SDS011;9223;50.988;3.162;2022-07-04T18:37:40;1.88;;;0.90;;
18194;SDS011;9223;50.988;3.162;2022-07-04T18:43:45;1.20;;;1.02;;
18194;SDS011;9223;50.988;3.162;2022-07-04T18:49:48;1.65;;;0.90;;
18194;SDS011;9223;50.988;3.162;2022-07-04T18:55:52;2.13;;;1.10;;
18194;SDS011;9223;50.988;3.162;2022-07-04T19:01:57;4.28;;;1.13;;
18194;SDS011;9223;50.988;3.162;2022-07-04T19:08:01;1.02;;;0.90;;
18194;SDS011;9223;50.988;3.162;2022-07-04T19:14:04;1.25;;;0.90;;
18194;SDS011;9223;50.988;3.162;2022-07-04T19:20:11;1.38;;;1.00;;
18194;SDS011;9223;50.988;3.162;2022-07-04T19:26:15;3.60;;;1.23;;
18194;SDS011;9223;50.988;3.162;2022-07-04T19:32:20;3.10;;;1.40;;
18194;SDS011;9223;50.988;3.162;2022-07-04T19:38:25;1.30;;;1.00;;
18194;SDS011;9223;50.988;3.162;2022-07-04T19:44:28;3.22;;;1.23;;
18194;SDS011;9223;50.988;3.162;2022-07-04T19:50:32;3.75;;;1.95;;
18194;SDS011;9223;50.988;3.162;2022-07-04T19:56:36;2.28;;;1.67;;
18194;SDS011;9223;50.988;3.162;2022-07-04T20:02:40;4.97;;;1.63;;
18194;SDS011;9223;50.988;3.162;2022-07-04T20:08:44;2.22;;;1.50;;
18194;SDS011;9223;50.988;3.162;2022-07-04T20:14:49;2.60;;;1.50;;
18194;SDS011;9223;50.988;3.162;2022-07-04T20:20:52;3.53;;;1.42;;
18194;SDS011;9223;50.988;3.162;2022-07-04T20:26:56;3.20;;;1.77;;
18194;SDS011;9223;50.988;3.162;2022-07-04T20:33:14;4.82;;;1.90;;
18194;SDS011;9223;50.988;3.162;2022-07-04T20:39:17;4.70;;;1.83;;
18194;SDS011;9223;50.988;3.162;2022-07-04T20:45:20;8.15;;;2.15;;
18194;SDS011;9223;50.988;3.162;2022-07-04T20:51:25;3.72;;;2.00;;
18194;SDS011;9223;50.988;3.162;2022-07-04T20:57:29;3.80;;;2.03;;
18194;SDS011;9223;50.988;3.162;2022-07-04T21:03:33;3.05;;;2.10;;
18194;SDS011;9223;50.988;3.162;2022-07-04T21:09:37;3.55;;;2.10;;
18194;SDS011;9223;50.988;3.162;2022-07-04T21:15:41;4.07;;;1.95;;
18194;SDS011;9223;50.988;3.162;2022-07-04T21:21:45;3.83;;;1.90;;
18194;SDS011;9223;50.988;3.162;2022-07-04T21:27:50;4.32;;;2.10;;
18194;SDS011;9223;50.988;3.162;2022-07-04T21:33:53;1.33;;;1.23;;
18194;SDS011;9223;50.988;3.162;2022-07-04T21:39:57;3.28;;;1.85;;
18194;SDS011;9223;50.988;3.162;2022-07-04T21:46:01;6.25;;;1.98;;
18194;SDS011;9223;50.988;3.162;2022-07-04T21:52:05;3.38;;;2.15;;
18194;SDS011;9223;50.988;3.162;2022-07-04T21:58:09;3.60;;;2.00;;
18194;SDS011;9223;50.988;3.162;2022-07-04T22:04:14;2.78;;;2.28;;
18194;SDS011;9223;50.988;3.162;2022-07-04T22:10:18;4.05;;;2.65;;
18194;SDS011;9223;50.988;3.162;2022-07-04T22:16:21;3.97;;;2.45;;
18194;SDS011;9223;50.988;3.162;2022-07-04T22:22:26;5.47;;;2.70;;
18194;SDS011;9223;50.988;3.162;2022-07-04T22:28:32;3.30;;;2.50;;
18194;SDS011;9223;50.988;3.162;2022-07-04T22:34:35;3.58;;;2.35;;
18194;SDS011;9223;50.988;3.162;2022-07-04T22:40:40;3.78;;;2.80;;
18194;SDS011;9223;50.988;3.162;2022-07-04T22:46:43;6.03;;;2.30;;
18194;SDS011;9223;50.988;3.162;2022-07-04T22:52:48;3.42;;;2.00;;
18194;SDS011;9223;50.988;3.162;2022-07-04T22:58:53;4.35;;;2.58;;
18194;SDS011;9223;50.988;3.162;2022-07-04T23:04:56;4.53;;;2.30;;
18194;SDS011;9223;50.988;3.162;2022-07-04T23:11:00;5.53;;;2.90;;
18194;SDS011;9223;50.988;3.162;2022-07-04T23:17:05;3.13;;;2.60;;
18194;SDS011;9223;50.988;3.162;2022-07-04T23:23:08;4.40;;;2.88;;
18194;SDS011;9223;50.988;3.162;2022-07-04T23:29:12;4.32;;;2.97;;
18194;SDS011;9223;50.988;3.162;2022-07-04T23:35:16;7.60;;;2.65;;
18194;SDS011;9223;50.988;3.162;2022-07-04T23:41:20;4.05;;;3.25;;
18194;SDS011;9223;50.988;3.162;2022-07-04T23:47:23;5.68;;;3.42;;
18194;SDS011;9223;50.988;3.162;2022-07-04T23:53:28;5.78;;;3.42;;
18194;SDS011;9223;50.988;3.162;2022-07-04T23:59:32;5.10;;;3.67;;
